Time;durP1;ratioP1;P1;durP2;ratioP2;P2;SDS_P1;SDS_P2;PMS_P1;PMS_P2;Temp;Humidity;BMP_temperature;BMP_pressure;BME280_temperature;BME280_humidity;BME280_pressure;Samples;Min_cycle;Max_cycle;Signal;HPM_P1;HPM_P2
2023/10/24 00:00:32;;;;;;;4.43;2.20;;;;;;;21.59;57.91;100989.13;4988735;28;20046;-59
2023/10/24 00:02:59;;;;;;;4.40;2.53;;;;;;;21.58;57.87;101006.28;4988756;28;20049;-59
2023/10/24 00:05:28;;;;;;;7.65;2.78;;;;;;;21.58;57.83;100996.34;4991679;28;20058;-59
2023/10/24 00:07:56;;;;;;;4.43;2.13;;;;;;;21.57;57.89;100983.88;4988460;28;20434;-59
2023/10/24 00:10:26;;;;;;;3.92;2.40;;;;;;;21.57;57.77;100978.50;4988885;28;20050;-56
2023/10/24 00:12:53;;;;;;;3.75;2.50;;;;;;;21.57;57.75;100986.59;4988369;28;20054;-56
2023/10/24 00:15:21;;;;;;;4.13;2.50;;;;;;;21.57;57.86;100969.56;5017920;28;20054;-56
2023/10/24 00:17:48;;;;;;;5.15;2.30;;;;;;;21.57;57.83;100964.19;4988542;28;20169;-56
2023/10/24 00:20:16;;;;;;;2.63;1.98;;;;;;;21.57;57.86;100966.88;4988555;28;20053;-59
2023/10/24 00:22:43;;;;;;;3.92;2.08;;;;;;;21.56;57.72;100982.19;4988369;28;20061;-59
2023/10/24 00:25:11;;;;;;;5.38;2.40;;;;;;;21.56;57.82;100966.03;4984975;28;20051;-59
2023/10/24 00:27:38;;;;;;;4.32;2.40;;;;;;;21.57;57.77;100967.72;4988031;28;20050;-59
2023/10/24 00:30:06;;;;;;;3.58;2.10;;;;;;;21.56;57.83;100979.50;4988779;28;20049;-59
2023/10/24 00:32:33;;;;;;;4.43;2.33;;;;;;;21.56;57.79;100960.63;4992099;28;20161;-59
2023/10/24 00:35:02;;;;;;;4.07;2.78;;;;;;;21.55;57.86;100948.13;4989457;28;20047;-59
2023/10/24 00:37:30;;;;;;;4.10;2.15;;;;;;;21.55;57.87;100956.22;4987391;28;20046;-59
2023/10/24 00:39:57;;;;;;;4.75;2.40;;;;;;;21.56;57.84;100968.72;4988545;28;20049;-59
2023/10/24 00:42:25;;;;;;;2.70;1.75;;;;;;;21.55;57.87;100964.31;4988371;28;20053;-59
2023/10/24 00:44:52;;;;;;;4.03;1.73;;;;;;;21.56;57.85;100979.50;4985287;28;20054;-59
2023/10/24 00:47:20;;;;;;;3.78;1.90;;;;;;;21.56;57.85;100981.34;4987515;28;20053;-59
2023/10/24 00:49:47;;;;;;;4.90;2.10;;;;;;;21.55;57.90;100967.00;4992141;28;20058;-56
2023/10/24 00:52:15;;;;;;;3.90;2.75;;;;;;;21.54;57.95;100957.22;4988386;28;20050;-56
2023/10/24 00:54:43;;;;;;;3.60;1.95;;;;;;;21.56;57.84;100962.50;4989554;28;20493;-56
2023/10/24 00:57:12;;;;;;;3.15;1.98;;;;;;;21.55;57.91;100950.84;4994336;28;20061;-56
2023/10/24 00:59:42;;;;;;;3.60;2.15;;;;;;;21.54;57.94;100951.00;4991992;28;20042;-59
2023/10/24 01:02:12;;;;;;;4.43;2.03;;;;;;;21.54;58.16;100941.06;4991860;28;20065;-59
2023/10/24 01:04:39;;;;;;;3.30;2.22;;;;;;;21.53;57.89;100917.81;4988530;28;20053;-59
2023/10/24 01:07:07;;;;;;;5.07;2.55;;;;;;;21.53;57.94;100916.97;4986762;28;20055;-59
2023/10/24 01:09:34;;;;;;;4.82;2.15;;;;;;;21.53;57.94;100928.59;4991899;28;20050;-56
2023/10/24 01:12:04;;;;;;;4.45;2.20;;;;;;;21.54;57.99;100918.66;4990915;28;20493;-56
2023/10/24 01:14:32;;;;;;;3.90;2.10;;;;;;;21.54;57.80;100906.03;4992290;28;20057;-56
2023/10/24 01:16:59;;;;;;;4.18;2.35;;;;;;;21.54;57.92;100915.97;4991733;28;20046;-56
2023/10/24 01:19:27;;;;;;;3.78;2.30;;;;;;;21.54;57.91;100922.22;4991504;28;20046;-56
2023/10/24 01:21:54;;;;;;;3.47;2.05;;;;;;;21.52;57.97;100899.97;4984623;28;20061;-56
2023/10/24 01:24:22;;;;;;;3.05;2.10;;;;;;;21.53;57.89;100904.34;4986874;28;20051;-56
2023/10/24 01:26:52;;;;;;;4.60;2.10;;;;;;;21.53;57.92;100888.19;4991716;28;20061;-56
2023/10/24 01:29:19;;;;;;;4.43;2.10;;;;;;;21.53;57.98;100901.66;4991623;28;20046;-58
2023/10/24 01:31:47;;;;;;;4.35;2.40;;;;;;;21.52;57.93;100889.19;4988612;28;20050;-59
2023/10/24 01:34:14;;;;;;;4.65;2.22;;;;;;;21.53;57.88;100882.81;4988654;28;20493;-59
2023/10/24 01:36:42;;;;;;;4.75;2.35;;;;;;;21.52;58.04;100875.72;4991533;28;20405;-59
2023/10/24 01:39:12;;;;;;;3.40;1.98;;;;;;;21.52;57.99;100881.09;4991742;28;20058;-57
2023/10/24 01:41:39;;;;;;;3.67;2.38;;;;;;;21.52;58.00;100864.94;4991904;28;20054;-56
2023/10/24 01:44:07;;;;;;;4.47;2.50;;;;;;;21.51;57.92;100865.91;4982735;28;20091;-56
2023/10/24 01:46:34;;;;;;;3.90;2.00;;;;;;;21.51;57.88;100879.38;4991013;28;20054;-56
2023/10/24 01:49:02;;;;;;;3.67;2.25;;;;;;;21.53;57.90;100887.34;4994567;28;20050;-56
2023/10/24 01:51:29;;;;;;;3.70;1.90;;;;;;;21.51;57.96;100865.06;4988932;28;20405;-59
2023/10/24 01:53:56;;;;;;;3.05;1.85;;;;;;;21.52;57.97;100854.19;4988329;28;20043;-59
2023/10/24 01:56:24;;;;;;;3.72;1.75;;;;;;;21.53;57.95;100868.47;4990793;28;20057;-59
2023/10/24 01:58:51;;;;;;;3.40;2.10;;;;;;;21.51;58.03;100859.69;4994367;28;20046;-59
2023/10/24 02:01:19;;;;;;;3.90;2.20;;;;;;;21.50;58.08;100856.16;4991412;28;20054;-56
2023/10/24 02:03:46;;;;;;;2.75;1.98;;;;;;;21.50;57.95;100864.22;4991152;28;20066;-56
2023/10/24 02:06:15;;;;;;;3.95;2.38;;;;;;;21.50;58.04;100850.75;4989792;28;20061;-56
2023/10/24 02:08:42;;;;;;;3.10;2.05;;;;;;;21.50;57.99;100844.53;4994488;28;20054;-56
2023/10/24 02:11:09;;;;;;;3.22;1.75;;;;;;;21.50;57.99;100831.06;4988877;28;20047;-59
2023/10/24 02:13:37;;;;;;;3.50;2.13;;;;;;;21.50;58.03;100826.53;4989214;28;20505;-59
2023/10/24 02:16:04;;;;;;;3.63;2.03;;;;;;;21.49;58.00;100816.75;4989293;28;20057;-59
2023/10/24 02:18:31;;;;;;;5.57;2.08;;;;;;;21.50;58.05;100804.97;4990369;28;20049;-59
2023/10/24 02:20:59;;;;;;;2.83;1.98;;;;;;;21.50;58.02;100791.50;4989318;28;20051;-59
2023/10/24 02:23:26;;;;;;;4.55;2.03;;;;;;;21.50;57.95;100788.81;4988379;28;20054;-59
2023/10/24 02:25:53;;;;;;;2.90;2.08;;;;;;;21.49;57.94;100784.44;4990220;28;20485;-59
2023/10/24 02:28:21;;;;;;;4.38;2.00;;;;;;;21.50;58.02;100777.19;4990599;28;20053;-59
2023/10/24 02:30:48;;;;;;;3.63;2.10;;;;;;;21.49;57.95;100773.66;4988896;28;20038;-59
2023/10/24 02:33:15;;;;;;;3.90;2.00;;;;;;;21.48;58.00;100778.19;4993637;28;20528;-59
2023/10/24 02:35:43;;;;;;;4.43;2.33;;;;;;;21.48;57.87;100764.72;4990019;28;20050;-59
2023/10/24 02:38:10;;;;;;;3.47;1.85;;;;;;;21.49;58.07;100773.66;4989073;28;20058;-59
2023/10/24 02:40:37;;;;;;;3.47;2.05;;;;;;;21.48;58.05;100772.81;4990435;28;20047;-59
2023/10/24 02:43:05;;;;;;;3.75;2.22;;;;;;;21.49;58.00;100770.97;4990585;28;20062;-59
2023/10/24 02:45:32;;;;;;;2.88;1.80;;;;;;;21.50;58.05;100766.41;4989927;28;20408;-59
2023/10/24 02:47:59;;;;;;;3.90;2.08;;;;;;;21.48;58.13;100764.72;4989939;28;20408;-59
2023/10/24 02:50:27;;;;;;;4.47;1.90;;;;;;;21.50;58.13;100761.03;4988702;28;20484;-56
2023/10/24 02:52:54;;;;;;;3.47;1.83;;;;;;;21.49;58.05;100749.41;4988092;28;20054;-56
2023/10/24 02:55:22;;;;;;;2.97;1.83;;;;;;;21.48;58.13;100736.94;4990109;28;20065;-56
2023/10/24 02:57:49;;;;;;;3.88;1.92;;;;;;;21.48;58.10;100742.34;4984026;28;20367;-56
2023/10/24 03:00:16;;;;;;;3.08;1.92;;;;;;;21.48;58.06;100736.94;5002767;28;20058;-56
2023/10/24 03:02:44;;;;;;;5.55;2.47;;;;;;;21.48;58.06;100745.88;4986270;28;20409;-56
2023/10/24 03:05:11;;;;;;;3.75;1.98;;;;;;;21.48;58.08;100747.72;4988381;28;20108;-56
2023/10/24 03:07:39;;;;;;;4.05;1.85;;;;;;;21.48;58.17;100729.72;4990076;28;20050;-56
2023/10/24 03:10:07;;;;;;;4.20;1.83;;;;;;;21.47;58.16;100711.88;4988245;28;20057;-56
2023/10/24 03:12:36;;;;;;;2.83;1.70;;;;;;;21.49;58.14;100725.16;4987430;28;20051;-56
2023/10/24 03:15:04;;;;;;;3.72;2.15;;;;;;;21.48;58.22;100723.47;4989581;28;20507;-56
2023/10/24 03:17:31;;;;;;;4.40;2.10;;;;;;;21.48;58.16;100713.56;4989854;28;20413;-56
2023/10/24 03:19:58;;;;;;;3.03;1.60;;;;;;;21.47;58.22;100703.78;4987938;28;20059;-59
2023/10/24 03:22:26;;;;;;;2.90;1.67;;;;;;;21.47;58.25;100695.69;5020375;28;20065;-59
2023/10/24 03:24:53;;;;;;;3.55;1.90;;;;;;;21.48;58.13;100699.25;4992960;28;20524;-59
2023/10/24 03:27:20;;;;;;;3.38;2.20;;;;;;;21.49;58.14;100690.16;4993101;28;20126;-59
2023/10/24 03:29:49;;;;;;;2.88;1.70;;;;;;;21.47;58.20;100681.34;4987798;28;20061;-56
2023/10/24 03:32:16;;;;;;;3.08;1.98;;;;;;;21.47;58.17;100682.25;4986057;28;20066;-56
2023/10/24 03:34:43;;;;;;;3.22;1.90;;;;;;;21.48;58.13;100688.47;4988747;28;20524;-56
2023/10/24 03:37:11;;;;;;;2.63;1.75;;;;;;;21.48;58.19;100699.25;4992610;28;20046;-56
2023/10/24 03:39:38;;;;;;;3.95;1.95;;;;;;;21.47;58.20;100676.84;4987116;28;20058;-59
2023/10/24 03:42:06;;;;;;;2.75;1.60;;;;;;;21.47;58.11;100682.25;4985903;28;20397;-59
2023/10/24 03:44:33;;;;;;;4.30;2.28;;;;;;;21.48;58.16;100675.84;4989091;28;20054;-59
2023/10/24 03:47:01;;;;;;;3.17;2.13;;;;;;;21.48;58.21;100678.53;4989034;28;20046;-59
2023/10/24 03:49:28;;;;;;;3.22;1.83;;;;;;;21.49;58.26;100668.59;4986941;28;20049;-56
2023/10/24 03:51:56;;;;;;;3.65;1.80;;;;;;;21.48;58.20;100664.22;4985926;28;20058;-56
2023/10/24 03:54:23;;;;;;;4.90;1.88;;;;;;;21.47;58.17;100652.59;4989040;28;20053;-56
2023/10/24 03:56:50;;;;;;;6.45;2.30;;;;;;;21.49;58.33;100655.13;4989087;28;20050;-56
2023/10/24 03:59:17;;;;;;;2.78;1.90;;;;;;;21.47;58.37;100636.44;4987206;28;20060;-59
2023/10/24 04:01:45;;;;;;;3.10;1.73;;;;;;;21.47;58.37;100631.06;4985845;28;20054;-59
2023/10/24 04:04:12;;;;;;;3.97;2.00;;;;;;;21.47;58.49;100635.56;4988852;28;20051;-59
2023/10/24 04:06:40;;;;;;;3.35;1.77;;;;;;;21.46;58.40;100628.50;4988549;28;20039;-59
2023/10/24 04:09:07;;;;;;;2.88;1.70;;;;;;;21.46;58.45;100615.88;4987355;28;20495;-57
2023/10/24 04:11:35;;;;;;;3.42;2.20;;;;;;;21.47;58.38;100616.72;4985879;28;20050;-56
2023/10/24 04:14:02;;;;;;;3.42;2.10;;;;;;;21.46;58.57;100633.88;4984094;28;20485;-56
2023/10/24 04:16:32;;;;;;;3.10;2.10;;;;;;;21.47;58.59;100632.88;4988675;28;20507;-56
2023/10/24 04:19:00;;;;;;;3.28;1.77;;;;;;;21.45;58.52;100624.97;4986457;28;20049;-56
2023/10/24 04:21:27;;;;;;;3.75;1.80;;;;;;;21.47;58.54;100630.19;4985828;28;20058;-56
2023/10/24 04:23:54;;;;;;;3.25;1.85;;;;;;;21.45;58.52;100614.19;4988674;28;20051;-56
2023/10/24 04:26:22;;;;;;;4.20;2.35;;;;;;;21.47;58.58;100584.41;4988424;28;20106;-56
2023/10/24 04:28:49;;;;;;;3.33;1.95;;;;;;;21.46;58.55;100588.09;4986693;28;20062;-56
2023/10/24 04:31:16;;;;;;;3.00;1.85;;;;;;;21.47;58.67;100576.31;4987568;28;20047;-59
2023/10/24 04:33:44;;;;;;;3.22;1.73;;;;;;;21.46;58.60;100553.94;4992742;28;20485;-59
2023/10/24 04:36:11;;;;;;;5.38;2.00;;;;;;;21.46;58.58;100563.88;4992607;28;20117;-56
2023/10/24 04:38:39;;;;;;;3.78;2.35;;;;;;;21.46;58.61;100563.88;4990682;28;20497;-56
2023/10/24 04:41:06;;;;;;;2.95;1.90;;;;;;;21.45;58.54;100563.03;4989454;28;20050;-60
2023/10/24 04:43:34;;;;;;;2.90;2.05;;;;;;;21.45;58.66;100567.56;4992481;28;20053;-60
2023/10/24 04:46:01;;;;;;;3.55;1.85;;;;;;;21.45;58.66;100551.41;4992083;28;20057;-59
2023/10/24 04:48:28;;;;;;;2.50;1.50;;;;;;;21.45;58.60;100537.94;4992703;28;20050;-59
2023/10/24 04:50:56;;;;;;;3.47;2.28;;;;;;;21.45;58.68;100511.00;4992430;28;20054;-59
2023/10/24 04:53:23;;;;;;;4.55;2.47;;;;;;;21.45;58.49;100497.53;4992410;28;20042;-59
2023/10/24 04:55:51;;;;;;;3.22;1.67;;;;;;;21.46;58.58;100512.69;4992730;28;20050;-59
2023/10/24 04:58:18;;;;;;;3.30;2.10;;;;;;;21.45;58.52;100509.16;4990049;28;20057;-59
2023/10/24 05:00:46;;;;;;;3.13;1.80;;;;;;;21.46;58.65;100496.53;4990269;28;20054;-56
2023/10/24 05:03:13;;;;;;;3.75;1.90;;;;;;;21.46;58.60;100501.91;4991809;28;20051;-56
2023/10/24 05:05:40;;;;;;;3.72;2.05;;;;;;;21.46;58.65;100493.84;4991892;28;20176;-56
2023/10/24 05:08:10;;;;;;;4.15;1.95;;;;;;;21.46;58.64;100493.84;4989836;28;20412;-56
2023/10/24 05:10:38;;;;;;;3.28;1.85;;;;;;;21.47;58.70;100487.44;4989596;28;20051;-59
2023/10/24 05:13:06;;;;;;;3.53;2.08;;;;;;;21.46;58.68;100475.00;4990346;28;20043;-59
2023/10/24 05:15:33;;;;;;;3.40;2.10;;;;;;;21.45;58.71;100455.28;4988144;28;20046;-59
2023/10/24 05:18:00;;;;;;;4.90;1.70;;;;;;;21.46;58.67;100464.22;4988325;28;20054;-59
2023/10/24 05:20:28;;;;;;;3.60;1.95;;;;;;;21.46;58.75;100466.91;4989198;28;20047;-57
2023/10/24 05:22:55;;;;;;;3.38;1.88;;;;;;;21.47;58.64;100455.13;4989889;28;20049;-59
2023/10/24 05:25:23;;;;;;;3.35;1.75;;;;;;;21.48;58.55;100448.75;4991242;28;20054;-59
2023/10/24 05:27:50;;;;;;;4.15;2.10;;;;;;;21.50;58.66;100449.44;4986680;28;20516;-56
2023/10/24 05:30:17;;;;;;;4.28;2.10;;;;;;;21.48;58.70;100432.59;4989245;28;20046;-59
2023/10/24 05:32:45;;;;;;;2.92;1.60;;;;;;;21.47;58.63;100434.44;4991466;28;20054;-59
2023/10/24 05:35:12;;;;;;;3.95;1.80;;;;;;;21.47;58.80;100422.81;4991727;28;20057;-59
2023/10/24 05:37:40;;;;;;;4.15;2.17;;;;;;;21.46;58.60;100426.50;4989483;28;20045;-59
2023/10/24 05:40:09;;;;;;;3.00;2.03;;;;;;;21.46;58.61;100431.91;4988600;28;20046;-56
2023/10/24 05:42:36;;;;;;;3.95;1.95;;;;;;;21.45;58.64;100417.59;4990393;28;20042;-56
2023/10/24 05:45:04;;;;;;;4.32;2.10;;;;;;;21.45;58.76;100414.06;4991102;28;20046;-56
2023/10/24 05:47:31;;;;;;;3.97;1.80;;;;;;;21.46;58.64;100415.75;4987448;28;20065;-56
2023/10/24 05:49:59;;;;;;;3.30;1.80;;;;;;;21.45;58.73;100409.50;4988719;28;20058;-59
2023/10/24 05:52:26;;;;;;;3.60;2.35;;;;;;;21.45;58.67;100408.66;4991534;28;20058;-59
2023/10/24 05:54:58;;;;;;;4.90;2.50;;;;;;;21.45;58.72;100389.81;4990963;28;20050;-59
2023/10/24 05:57:25;;;;;;;4.50;2.00;;;;;;;21.44;58.65;100385.44;4988385;28;20948;-59
2023/10/24 05:59:53;;;;;;;3.28;2.20;;;;;;;21.44;58.69;100375.50;4989036;28;20047;-56
2023/10/24 06:02:20;;;;;;;5.22;2.20;;;;;;;21.43;58.72;100390.00;4991015;28;20038;-56
2023/10/24 06:04:47;;;;;;;3.33;2.10;;;;;;;21.44;58.66;100410.53;4990983;28;20046;-56
2023/10/24 06:07:15;;;;;;;4.78;2.22;;;;;;;21.44;58.56;100406.97;4988050;28;20042;-56
2023/10/24 06:09:42;;;;;;;3.40;2.00;;;;;;;21.43;58.64;100392.69;5003883;28;20053;-56
2023/10/24 06:12:09;;;;;;;3.42;2.08;;;;;;;21.44;58.80;100388.13;4990685;28;20394;-57
2023/10/24 06:14:37;;;;;;;3.90;2.47;;;;;;;21.43;58.74;100373.81;4990559;28;20100;-56
2023/10/24 06:17:05;;;;;;;2.90;1.75;;;;;;;21.43;58.73;100373.81;4988611;28;20069;-56
2023/10/24 06:19:33;;;;;;;4.38;2.05;;;;;;;21.44;58.76;100388.97;4990922;28;20528;-56
2023/10/24 06:22:01;;;;;;;3.30;2.20;;;;;;;21.44;58.81;100377.38;4990290;28;20535;-56
2023/10/24 06:24:28;;;;;;;3.22;1.92;;;;;;;21.43;58.81;100373.81;4990405;28;20043;-56
2023/10/24 06:26:55;;;;;;;3.00;2.08;;;;;;;21.43;58.78;100383.72;4988525;28;20054;-56
2023/10/24 06:29:23;;;;;;;4.45;1.98;;;;;;;21.44;58.86;100370.13;4988265;28;20074;-56
2023/10/24 06:31:50;;;;;;;3.95;2.22;;;;;;;21.43;58.88;100367.56;4990189;28;20054;-56
2023/10/24 06:34:18;;;;;;;3.35;1.90;;;;;;;21.44;58.90;100383.59;4989952;28;20054;-56
2023/10/24 06:36:45;;;;;;;3.35;2.05;;;;;;;21.43;58.79;100383.72;4987994;28;20055;-56
2023/10/24 06:39:12;;;;;;;3.10;1.77;;;;;;;21.43;58.89;100367.56;4988226;28;20054;-59
2023/10/24 06:41:40;;;;;;;3.05;1.70;;;;;;;21.43;58.85;100364.88;4990107;28;20047;-59
2023/10/24 06:44:07;;;;;;;2.78;1.70;;;;;;;21.44;58.85;100358.50;4989409;28;20058;-59
2023/10/24 06:46:34;;;;;;;3.63;2.30;;;;;;;21.42;58.80;100350.56;4987391;28;20054;-59
2023/10/24 06:49:02;;;;;;;4.13;1.92;;;;;;;21.43;58.84;100348.72;4989844;28;20050;-59
2023/10/24 06:51:29;;;;;;;3.90;1.85;;;;;;;21.44;58.78;100347.75;4989964;28;20050;-59
2023/10/24 06:53:57;;;;;;;3.20;1.88;;;;;;;21.44;58.94;100347.75;4989019;28;20049;-59
2023/10/24 06:56:24;;;;;;;3.38;2.25;;;;;;;21.43;59.03;100354.09;4987943;28;20050;-59
2023/10/24 06:58:51;;;;;;;4.43;1.95;;;;;;;21.43;58.91;100352.28;4987729;28;20051;-59
2023/10/24 07:01:19;;;;;;;4.55;2.30;;;;;;;21.44;58.70;100345.03;4988559;28;20042;-59
2023/10/24 07:03:47;;;;;;;3.40;2.13;;;;;;;21.44;59.03;100359.34;4989528;28;20050;-59
2023/10/24 07:06:15;;;;;;;3.95;1.95;;;;;;;21.43;59.02;100354.97;4986737;28;20050;-59
2023/10/24 07:08:42;;;;;;;4.70;2.55;;;;;;;21.42;59.16;100350.56;4987532;28;20382;-59
2023/10/24 07:11:09;;;;;;;3.25;2.40;;;;;;;21.41;59.22;100340.81;4989599;28;20050;-59
2023/10/24 07:13:37;;;;;;;4.15;2.40;;;;;;;21.40;59.21;100324.81;4989467;28;20409;-59
2023/10/24 07:16:14;;;;;;;4.07;2.17;;;;;;;21.41;59.15;100321.13;4986765;28;20054;-59
2023/10/24 07:18:42;;;;;;;4.85;2.63;;;;;;;21.42;59.32;100334.41;4988250;28;20046;-58
2023/10/24 07:21:10;;;;;;;4.32;3.10;;;;;;;21.42;59.33;100314.72;4993626;28;20061;-57
2023/10/24 07:23:38;;;;;;;4.57;3.08;;;;;;;21.42;59.48;100317.41;4988834;28;20066;-56
2023/10/24 07:26:05;;;;;;;5.03;2.53;;;;;;;21.42;59.42;100329.03;4984549;28;20513;-57
2023/10/24 07:28:33;;;;;;;4.32;2.47;;;;;;;21.41;59.25;100321.97;4988562;28;20049;-57
2023/10/24 07:31:00;;;;;;;5.28;2.83;;;;;;;21.41;59.41;100321.13;4989283;28;20050;-59
2023/10/24 07:33:28;;;;;;;5.95;3.13;;;;;;;21.40;59.55;100330.22;4989157;28;20511;-59
2023/10/24 07:36:06;;;;;;;5.95;3.53;;;;;;;21.39;59.67;100334.75;4985309;28;20066;-59
2023/10/24 07:38:34;;;;;;;5.40;2.95;;;;;;;21.39;59.64;100344.66;4988744;28;20413;-59
2023/10/24 07:41:02;;;;;;;6.03;2.95;;;;;;;21.38;59.38;100333.03;4987861;28;20062;-59
2023/10/24 07:43:30;;;;;;;4.68;2.75;;;;;;;21.38;59.60;100337.59;4986733;28;20042;-59
2023/10/24 07:45:58;;;;;;;6.18;3.72;;;;;;;21.37;59.67;100331.34;4990675;28;20046;-59
2023/10/24 07:48:26;;;;;;;7.93;4.28;;;;;;;21.38;59.66;100334.88;4989117;28;20046;-59
2023/10/24 07:50:57;;;;;;;6.53;4.10;;;;;;;21.37;59.81;100352.06;4992104;28;20050;-59
2023/10/24 07:53:26;;;;;;;5.22;3.92;;;;;;;21.36;59.82;100355.75;4985059;28;20038;-59
2023/10/24 07:55:53;;;;;;;6.00;3.00;;;;;;;21.35;59.74;100356.72;4985960;28;20053;-59
2023/10/24 07:58:21;;;;;;;7.78;3.42;;;;;;;;;;4987826;28;20535;-59
2023/10/24 08:00:48;;;;;;;4.90;3.17;;;;;;;21.36;59.71;100340.44;4989842;28;20054;-59
2023/10/24 08:03:16;;;;;;;7.32;3.83;;;;;;;21.35;59.78;100337.88;4985931;28;20069;-59
2023/10/24 08:05:45;;;;;;;4.32;3.45;;;;;;;21.35;59.79;100335.19;4986130;28;20050;-59
2023/10/24 08:08:12;;;;;;;6.07;3.15;;;;;;;;;;4988418;28;20050;-59
2023/10/24 08:10:39;;;;;;;4.20;2.53;;;;;;;21.35;59.52;100359.44;4988197;28;20050;-57
2023/10/24 08:13:07;;;;;;;4.07;2.17;;;;;;;21.35;59.55;100345.97;4985971;28;20440;-57
2023/10/24 08:15:35;;;;;;;4.22;2.70;;;;;;;21.36;59.56;100336.91;4986517;28;20038;-56
2023/10/24 08:18:02;;;;;;;5.35;2.90;;;;;;;21.33;59.71;100327.28;4987941;28;20050;-55
2023/10/24 08:20:30;;;;;;;5.32;3.38;;;;;;;21.33;59.85;100302.22;4988380;28;20042;-58
2023/10/24 08:22:57;;;;;;;6.80;3.67;;;;;;;21.29;60.09;100327.72;4985373;28;20058;-58
2023/10/24 08:25:24;;;;;;;5.97;3.40;;;;;;;21.29;60.14;100319.66;4990259;28;20045;-58
2023/10/24 08:27:52;;;;;;;6.28;4.05;;;;;;;21.28;60.34;100320.66;4988323;28;20057;-58
2023/10/24 08:30:19;;;;;;;5.80;3.85;;;;;;;21.25;60.45;100292.19;4988006;28;20038;-55
2023/10/24 08:32:47;;;;;;;5.32;3.85;;;;;;;21.24;60.54;100296.75;4985224;28;20073;-55
2023/10/24 08:35:14;;;;;;;4.95;3.40;;;;;;;21.23;60.60;100296.91;4988797;28;20038;-55
2023/10/24 08:37:41;;;;;;;6.80;3.88;;;;;;;21.22;60.81;100303.28;4988148;28;20054;-55
2023/10/24 08:40:09;;;;;;;4.93;3.47;;;;;;;21.20;60.82;100294.53;4987781;28;20045;-58
2023/10/24 08:42:37;;;;;;;4.95;3.63;;;;;;;21.20;60.94;100289.97;4985084;28;20049;-58
2023/10/24 08:45:06;;;;;;;4.63;3.70;;;;;;;21.20;60.88;100291.84;4986689;28;20508;-58
2023/10/24 08:47:34;;;;;;;7.22;3.40;;;;;;;21.20;60.79;100300.75;4988051;28;20482;-58
2023/10/24 08:50:03;;;;;;;5.95;3.80;;;;;;;21.20;60.99;100298.06;4987881;28;20050;-55
2023/10/24 08:52:31;;;;;;;4.60;3.65;;;;;;;21.20;61.06;100289.13;4984853;28;20051;-56
2023/10/24 08:55:06;;;;;;;6.68;4.15;;;;;;;21.19;60.95;100282.91;4985854;28;20043;-56
2023/10/24 08:57:39;;;;;;;5.03;3.75;;;;;;;21.19;61.06;100291.00;4988228;28;20046;-56
2023/10/24 09:00:14;;;;;;;5.63;4.55;;;;;;;21.18;61.58;100304.59;4986928;28;20412;-58
2023/10/24 09:02:43;;;;;;;9.75;5.50;;;;;;;21.18;61.53;100309.97;4985288;28;20057;-58
2023/10/24 09:05:14;;;;;;;8.65;6.72;;;;;;;21.14;61.95;100281.69;4987722;28;20049;-58
2023/10/24 09:07:42;;;;;;;9.82;8.10;;;;;;;21.07;62.23;100270.72;4986770;28;20054;-58
2023/10/24 09:10:09;;;;;;;9.15;7.57;;;;;;;21.03;62.36;100274.72;4986722;28;20058;-57
2023/10/24 09:12:39;;;;;;;7.80;7.00;;;;;;;21.02;62.42;100258.72;4987240;28;20601;-56
2023/10/24 09:15:10;;;;;;;7.35;6.00;;;;;;;21.04;62.18;100265.63;4987696;28;20053;-56
2023/10/24 09:17:37;;;;;;;6.60;5.90;;;;;;;21.06;62.03;100268.16;4989552;28;20074;-57
2023/10/24 09:20:08;;;;;;;9.88;5.95;;;;;;;21.07;62.02;100269.88;4988125;28;20054;-58
2023/10/24 09:22:36;;;;;;;7.25;5.38;;;;;;;21.08;61.87;100267.00;4991156;28;20050;-56
2023/10/24 09:25:04;;;;;;;6.97;5.13;;;;;;;21.10;61.77;100266.84;4991285;28;20046;-56
2023/10/24 09:27:32;;;;;;;7.68;5.47;;;;;;;21.10;61.74;100273.06;4989389;28;20417;-56
2023/10/24 09:30:11;;;;;;;8.55;5.05;;;;;;;21.12;61.72;100286.38;4987577;28;20411;-56
2023/10/24 09:32:41;;;;;;;7.00;4.57;;;;;;;21.13;61.55;100267.38;4991083;28;20058;-56
2023/10/24 09:35:09;;;;;;;7.20;4.65;;;;;;;21.12;61.72;100268.38;4991165;28;20049;-56
2023/10/24 09:37:55;;;;;;;5.30;4.20;;;;;;;21.15;61.49;100256.47;4991960;28;20046;-56
2023/10/24 09:40:33;;;;;;;7.20;5.20;;;;;;;21.12;61.58;100263.00;4990834;28;20050;-58
2023/10/24 09:43:04;;;;;;;7.10;4.88;;;;;;;21.10;61.88;100262.31;4994459;28;20061;-58
2023/10/24 09:45:33;;;;;;;6.45;4.88;;;;;;;21.10;61.87;100270.38;4987425;28;20049;-58
2023/10/24 09:48:02;;;;;;;6.40;4.47;;;;;;;21.10;61.94;100285.69;4988697;28;20051;-58
2023/10/24 09:50:31;;;;;;;5.82;4.15;;;;;;;21.10;61.75;100299.97;4990626;28;20393;-58
2023/10/24 09:52:59;;;;;;;5.88;4.30;;;;;;;21.10;61.67;100312.59;4990837;28;20053;-57
2023/10/24 09:55:30;;;;;;;4.22;3.58;;;;;;;21.11;61.70;100309.78;4988803;28;20520;-57
2023/10/24 09:57:59;;;;;;;5.15;4.32;;;;;;;21.11;61.69;100293.63;4990533;28;20038;-57
2023/10/24 10:00:27;;;;;;;5.68;3.88;;;;;;;21.11;61.58;100304.38;4990932;28;20046;-55
2023/10/24 10:02:58;;;;;;;4.45;3.10;;;;;;;21.11;61.52;100301.69;4990528;28;20057;-55
2023/10/24 10:05:31;;;;;;;5.60;3.53;;;;;;;21.11;61.53;100282.00;4987663;28;20059;-55
2023/10/24 10:08:00;;;;;;;4.93;3.60;;;;;;;21.10;61.53;100267.69;4981815;28;20073;-55
2023/10/24 10:10:28;;;;;;;5.32;3.30;;;;;;;21.11;61.59;100284.69;4991270;28;20057;-57
2023/10/24 10:12:59;;;;;;;4.57;3.20;;;;;;;21.11;61.52;100325.06;4988840;28;20046;-57
2023/10/24 10:15:44;;;;;;;4.30;3.42;;;;;;;21.10;61.45;100351.13;4987538;28;20051;-57
2023/10/24 10:18:53;;;;;;;3.28;2.80;;;;;;;21.09;61.50;100335.97;4990261;28;20046;-57
2023/10/24 10:21:33;;;;;;;4.97;3.28;;;;;;;21.09;61.55;100314.44;4980244;28;20062;-57
2023/10/24 10:24:30;;;;;;;3.50;2.60;;;;;;;21.10;61.40;100336.81;4990053;28;20047;-57
2023/10/24 10:27:07;;;;;;;4.40;2.83;;;;;;;21.09;61.44;100333.28;4988454;28;20058;-57
2023/10/24 10:29:55;;;;;;;3.67;2.33;;;;;;;21.09;61.51;100327.91;4979943;28;20054;-57
2023/10/24 10:32:43;;;;;;;4.47;2.15;;;;;;;21.08;61.50;100336.16;4987679;28;20381;-57
2023/10/24 10:35:52;;;;;;;4.00;2.05;;;;;;;21.07;61.40;100319.16;4989868;28;20046;-57
2023/10/24 10:38:24;;;;;;;3.53;2.05;;;;;;;21.07;61.52;100299.47;4986893;28;20054;-57
2023/10/24 10:40:51;;;;;;;3.83;2.45;;;;;;;21.06;61.51;100303.16;4987842;28;20074;-56
2023/10/24 10:43:30;;;;;;;3.42;2.00;;;;;;;21.04;61.38;100292.53;4989388;28;20066;-56
2023/10/24 10:46:20;;;;;;;2.85;1.58;;;;;;;21.04;61.51;100273.72;4989608;28;20046;-56
2023/10/24 10:48:48;;;;;;;3.38;2.30;;;;;;;21.03;61.46;100261.25;4986170;28;20053;-56
2023/10/24 10:51:16;;;;;;;2.50;1.80;;;;;;;21.04;61.48;100265.63;4999412;28;20058;-58
2023/10/24 10:54:10;;;;;;;2.83;1.75;;;;;;;21.04;61.21;100272.88;4989632;28;20069;-58
2023/10/24 10:56:39;;;;;;;;;;;;;;;21.03;61.38;100274.72;4986261;28;20062;-58
2023/10/24 10:59:07;;;;;;;4.45;1.90;;;;;;;21.04;61.40;100249.50;4981078;28;19930;-57
2023/10/24 11:02:00;;;;;;;2.25;1.65;;;;;;;21.05;61.32;100240.41;4992777;28;20054;-58
2023/10/24 11:04:28;;;;;;;2.40;1.30;;;;;;;21.05;61.26;100226.09;4985830;28;20047;-58
2023/10/24 11:06:57;;;;;;;3.03;1.58;;;;;;;21.05;61.28;100220.72;4989295;28;20054;-58
2023/10/24 11:09:34;;;;;;;2.55;1.45;;;;;;;21.06;61.25;100227.78;4989652;28;20065;-57
2023/10/24 11:12:27;;;;;;;2.22;1.20;;;;;;;21.05;61.29;100209.97;4986665;28;20389;-56
2023/10/24 11:15:10;;;;;;;2.30;1.25;;;;;;;21.04;61.20;100219.88;4980792;28;20058;-57
2023/10/24 11:17:37;;;;;;;2.40;1.20;;;;;;;21.04;61.47;100205.59;4989290;28;20046;-56
2023/10/24 11:20:07;;;;;;;1.80;0.95;;;;;;;21.04;61.33;100173.28;4985392;28;20402;-58
2023/10/24 11:22:48;;;;;;;;;;;;;;;21.02;61.50;100143.00;4981270;28;20043;-58
2023/10/24 11:25:16;;;;;;;2.17;1.20;;;;;;;21.04;61.51;100128.38;4988690;28;20372;-58
2023/10/24 11:27:45;;;;;;;2.10;1.20;;;;;;;21.03;61.71;100123.19;4986604;28;20050;-58
2023/10/24 11:30:13;;;;;;;2.50;1.30;;;;;;;21.04;61.75;100108.72;4986194;28;20046;-58
2023/10/24 11:32:41;;;;;;;3.10;1.40;;;;;;;21.05;61.89;100102.31;4989138;28;20384;-58
2023/10/24 11:35:09;;;;;;;3.38;1.52;;;;;;;21.04;61.93;100071.88;4989201;28;20073;-58